SBTT/TBT METAR and TAF weather

Enter ICAO airport designator
Station Type Date Time Source
SBTT METAR 2022/01/24 22:27 UTC NOAA

SBTT 242227Z 29003KT 9999 FEW020 SCT090 25/24 Q1006


Station Type Date Time Source
SBTT Decoded METAR 2022/01/24 22:27 UTC NOAA

Tabatinga, Brazil (SBTT) 03-40S 069-40W
Jan 24, 2022 - 05:27 PM EST / 2022.01.24 2227 UTC
Wind: from the WNW (290 degrees) at 3 MPH (3 KT):0
Visibility: greater than 7 mile(s):0
Sky conditions: partly cloudy
Temperature: 77 F (25 C)
Dew Point: 75 F (24 C)
Relative Humidity: 94%
Pressure (altimeter): 29.71 in. Hg (1006 hPa)
ob: SBTT 242227Z 29003KT 9999 FEW020 SCT090 25/24 Q1006
cycle: 22

Station Type Date Time Source
SBTT TAF 2022/01/24 18:57 UTC NOAA

TAF SBTT 241550Z 2418/2518 07010KT 8000 TS SCT020 FEW030CB TN24/2512Z TX30/2518Z
TEMPO 2418/2422 15015KT 5000 TSRA BKN015 FEW030CB
BECMG 2422/2424 24010KT NSW SCT015 FEW030TCU
BECMG 2501/2503 15010KT TS SCT015 FEW030CB
BECMG 2506/2508 12010KT NSW BKN012
TEMPO 2510/2513 4000 BR BKN007
BECMG 2513/2515 9999 SCT012 BKN015
BECMG 2516/2518 07010KT 8000 TS SCT020 FEW030CB
RMK PGS

Example: see airport list